PORTS® Data Listing: 8452660 Newport, RI

CO-OPS RAW PORTS DATA

************************      PRELIMINARY DATA      ************************** 

     THIS RAW DATA HAS NOT BEEN SUBJECT TO THE NATIONAL OCEAN SERVICE'S        
     QUALITY CONTROL OR QUALITY ASSURANCE PROCEDURES AND DOES NOT MEET         
     THE CRITERIA AND STANDARDS OF OFFICIAL NATIONAL OCEAN SERVICE             
     DATA.  IT IS RELEASED FOR LIMITED PUBLIC USE AS PRELIMINARY DATA TO       
     BE USED ONLY WITH APPROPRIATE CAUTION.                                    

************************      PRELIMINARY DATA      ************************** 


       CD   -   Calendar date
       T    -   Time
       TZ   -   Timezone
       PW   -   Predicted water level (feet above MLLW)
       OW   -   Observed water level (feet above MLLW)
       WS   -   Wind speed (knots)
       WD   -   Wind direction (degrees true)
       WG   -   Wind gust (knots)
       AT   -   Air temperature (degrees farenheit)
       WT   -   Water temperature (degrees farenheit)
       AP   -   Air pressure (millibars)
       SA   -   Salinty (PSU - Practical Salinity Units)
       SG   -   Specific gravity
       RH   -   Relative humidity
       AG   -   Air gap (feet)
       VI   -   Visibility (nautical miles)

       ** NOTE **
       A variable that has its data fields filled with "9"s, indicates that
       data was not collected for that sample period.
       **********


STATION NAME: Newport (8452660)
****************************************************************************************************
    CD       T    TZ    PW     OW    WS   WD   WG    AT    WT    AP    SA    SG     RH    AG   VI
****************************************************************************************************
2020/02/24 09:24 EST    3.21   3.87    7  200    8  44.6  35.2 1018.7 31.7  1.026 -99.9 -99.99 -9.99
2020/02/24 09:30 EST    3.14   3.80    7  198    9  44.8  35.2 1018.6 31.7  1.026 -99.9 -99.99 -9.99
2020/02/24 09:36 EST    3.07   3.69    8  199    9  45.0  35.2 1018.6 31.7  1.026 -99.9 -99.99 -9.99
2020/02/24 09:42 EST    2.99   3.60    8  205   10  44.8  35.2 1018.5 31.7  1.026 -99.9 -99.99 -9.99
2020/02/24 09:48 EST    2.90   3.54    8  205   10  44.8  35.2 1018.5 31.7  1.026 -99.9 -99.99 -9.99
2020/02/24 09:54 EST    2.81   3.45    9  203   10  45.0  35.2 1018.5 31.7  1.026 -99.9 -99.99 -9.99
2020/02/24 10:00 EST    2.72   3.35    8  206   10  45.0  35.2 1018.4 31.7  1.026 -99.9 -99.99 -9.99
2020/02/24 10:06 EST    2.62   3.28    8  206   10  45.0  35.2 1018.4 31.7  1.026 -99.9 -99.99 -9.99
2020/02/24 10:12 EST    2.52   3.16   10  210   11  44.8  35.2 1018.5 31.7  1.026 -99.9 -99.99 -9.99
2020/02/24 10:18 EST    2.42   3.04   10  204   12  45.0  35.4 1018.4 31.6  1.026 -99.9 -99.99 -9.99
2020/02/24 10:24 EST    2.31   2.94   11  200   15  45.1  35.4 1018.4 31.6  1.026 -99.9 -99.99 -9.99
2020/02/24 10:30 EST    2.20   2.84   13  205   14  45.0  35.4 1018.4 31.7  1.026 -99.9 -99.99 -9.99
2020/02/24 10:36 EST    2.09   2.70   11  202   15  45.1  35.4 1018.4 31.7  1.026 -99.9 -99.99 -9.99
2020/02/24 10:42 EST    1.98   2.58   11  207   13  45.0  35.4 1018.4 31.7  1.026 -99.9 -99.99 -9.99
2020/02/24 10:48 EST    1.86   2.47   11  202   12  45.1  35.6 1018.5 31.6  1.026 -99.9 -99.99 -9.99
2020/02/24 10:54 EST    1.75   2.37   11  202   12  45.3  35.6 1018.5 31.6  1.026 -99.9 -99.99 -9.99
2020/02/24 11:00 EST    1.64   2.24   11  200   14  45.7  35.6 1018.4 31.6  1.026 -99.9 -99.99 -9.99
2020/02/24 11:06 EST    1.52   2.12   10  199   14  46.0  35.6 1018.3 31.6  1.026 -99.9 -99.99 -9.99
2020/02/24 11:12 EST    1.41   2.00    9  195   11  46.2  35.6 1018.3 31.6  1.026 -99.9 -99.99 -9.99
2020/02/24 11:18 EST    1.30   1.89   11  189   12  46.2  35.6 1018.2 31.6  1.026 -99.9 -99.99 -9.99
2020/02/24 11:24 EST    1.19   1.76   11  192   13  46.2  35.6 1018.1 31.6  1.026 -99.9 -99.99 -9.99
2020/02/24 11:30 EST    1.09   1.60   11  194   13  46.2  35.6 1018.1 31.6  1.026 -99.9 -99.99 -9.99
2020/02/24 11:36 EST    0.98   1.51   11  190   13  46.4  35.6 1018.1 31.6  1.026 -99.9 -99.99 -9.99
2020/02/24 11:42 EST    0.89   1.41   10  196   13  46.0  35.6 1018.1 31.6  1.026 -99.9 -99.99 -9.99
2020/02/24 11:48 EST    0.79   1.29   11  196   13  46.2  35.6 1018.1 31.6  1.026 -99.9 -99.99 -9.99
2020/02/24 11:54 EST    0.70   1.17   11  192   13  46.6  35.6 1017.9 31.6  1.026 -99.9 -99.99 -9.99
2020/02/24 12:00 EST    0.61   1.07   10  192   14  46.6  35.6 1017.8 31.6  1.026 -99.9 -99.99 -9.99
2020/02/24 12:06 EST    0.52   1.02   10  186   13  46.8  35.6 1017.6 31.6  1.026 -99.9 -99.99 -9.99
2020/02/24 12:12 EST    0.45   0.94   10  190   12  46.9  35.6 1017.5 31.6  1.026 -99.9 -99.99 -9.99
2020/02/24 12:18 EST    0.37   0.84   10  187   12  47.1  35.8 1017.4 31.6  1.026 -99.9 -99.99 -9.99
2020/02/24 12:24 EST    0.30   0.76   10  187   13  47.1  35.8 1017.3 31.6  1.026 -99.9 -99.99 -9.99
2020/02/24 12:30 EST    0.24   0.71   11  189   14  46.9  35.8 1017.2 31.6  1.026 -99.9 -99.99 -9.99
2020/02/24 12:36 EST    0.18   0.67   10  187   13  46.9  35.8 1017.1 31.6  1.026 -99.9 -99.99 -9.99
2020/02/24 12:42 EST    0.13   0.60   11  189   12  47.1  35.8 1017.1 31.6  1.026 -99.9 -99.99 -9.99
2020/02/24 12:48 EST    0.08   0.54   10  190   14  47.1  35.8 1017.0 31.6  1.026 -99.9 -99.99 -9.99
2020/02/24 12:54 EST    0.03   0.51   10  186   12  47.3  35.8 1016.9 31.6  1.026 -99.9 -99.99 -9.99
2020/02/24 13:00 EST   -0.01   0.50   11  189   12  47.1  35.8 1016.9 31.6  1.026 -99.9 -99.99 -9.99
2020/02/24 13:06 EST   -0.04   0.45   11  186   14  47.1  35.8 1016.8 31.6  1.026 -99.9 -99.99 -9.99
2020/02/24 13:12 EST   -0.07   0.41   10  194   12  47.1  35.8 1016.8 31.6  1.026 -99.9 -99.99 -9.99
2020/02/24 13:18 EST   -0.10   0.43   11  199   13  46.9  35.8 1016.8 31.6  1.026 -99.9 -99.99 -9.99
2020/02/24 13:24 EST   -0.12   0.42   10  197   13  47.1  35.8 1016.8 31.6  1.026 -99.9 -99.99 -9.99
2020/02/24 13:30 EST   -0.14   0.41   11  195   12  47.1  35.8 1016.8 31.6  1.026 -99.9 -99.99 -9.99
2020/02/24 13:36 EST   -0.15   0.41   11  194   13  47.3  35.8 1016.6 31.6  1.026 -99.9 -99.99 -9.99
2020/02/24 13:42 EST   -0.16   0.42    9  196   12  47.1  36.0 1016.6 31.5  1.026 -99.9 -99.99 -9.99
2020/02/24 13:48 EST   -0.16   0.44   12  203   13  46.9  36.0 1016.6 31.5  1.026 -99.9 -99.99 -9.99
2020/02/24 13:54 EST   -0.16   0.45   10  203   14  46.9  36.0 1016.6 31.6  1.026 -99.9 -99.99 -9.99
2020/02/24 14:00 EST   -0.16   0.48   11  203   13  46.8  36.0 1016.6 31.6  1.026 -99.9 -99.99 -9.99
2020/02/24 14:06 EST   -0.16   0.47   11  208   13  46.6  36.0 1016.5 31.6  1.026 -99.9 -99.99 -9.99
2020/02/24 14:12 EST   -0.15   0.47   13  207   14  46.8  36.0 1016.5 31.6  1.026 -99.9 -99.99 -9.99
2020/02/24 14:18 EST   -0.14   0.50   13  209   15  46.4  36.0 1016.4 31.6  1.026 -99.9 -99.99 -9.99
2020/02/24 14:24 EST   -0.13   0.52   13  203   17  46.6  36.0 1016.6 31.6  1.026 -99.9 -99.99 -9.99
2020/02/24 14:30 EST   -0.11   0.54   12  203   16  46.6  36.0 1016.4 31.6  1.026 -99.9 -99.99 -9.99
2020/02/24 14:36 EST   -0.09   0.57   13  203   15  46.6  36.0 1016.4 31.6  1.026 -99.9 -99.99 -9.99
2020/02/24 14:42 EST   -0.07   0.57   12  203   15  46.4  36.0 1016.4 31.6  1.026 -99.9 -99.99 -9.99
2020/02/24 14:48 EST   -0.05   0.59   12  201   14  46.4  36.0 1016.3 31.6  1.026 -99.9 -99.99 -9.99
2020/02/24 14:54 EST   -0.02   0.63   12  201   14  46.4  36.0 1016.3 31.6  1.026 -99.9 -99.99 -9.99
2020/02/24 15:00 EST    0.01   0.65   12  203   14  46.2  36.1 1016.3 31.5  1.026 -99.9 -99.99 -9.99
2020/02/24 15:06 EST    0.04   0.68   12  203   14  46.2  36.1 1016.2 31.6  1.026 -99.9 -99.99 -9.99
2020/02/24 15:12 EST    0.07   0.74   11  206   14  46.2  36.1 1016.2 31.6  1.026 -99.9 -99.99 -9.99
2020/02/24 15:18 EST    0.11   0.79   12  205   15  46.2  36.1 1016.2 31.6  1.026 -99.9 -99.99 -9.99
2020/02/24 15:24 EST    0.15   0.83   11  203   13  46.2  36.1 1016.2 31.6  1.026 -99.9 -99.99 -9.99
2020/02/24 15:30 EST    0.19   0.86   11  203   13  46.4  36.1 1016.1 31.6  1.026 -99.9 -99.99 -9.99
2020/02/24 15:36 EST    0.23   0.91   11  201   12  46.2  36.1 1016.1 31.6  1.026 -99.9 -99.99 -9.99
2020/02/24 15:42 EST    0.27   0.98   11  201   13  46.2  36.1 1016.0 31.6  1.026 -99.9 -99.99 -9.99
2020/02/24 15:48 EST    0.32   1.02   10  199   12  46.0  36.3 1015.9 31.6  1.026 -99.9 -99.99 -9.99
2020/02/24 15:54 EST    0.37   1.01   11  200   11  45.9  36.3 1015.9 31.6  1.026 -99.9 -99.99 -9.99
2020/02/24 16:00 EST    0.42   1.07   11  198   12  46.0  36.3 1015.8 31.6  1.026 -99.9 -99.99 -9.99
2020/02/24 16:06 EST    0.48   1.14   11  194   13  45.7  36.3 1015.8 31.5  1.026 -99.9 -99.99 -9.99
2020/02/24 16:12 EST    0.54   1.21   10  192   13  45.5  36.3 1015.7 31.6  1.026 -99.9 -99.99 -9.99
2020/02/24 16:18 EST    0.60   1.33   10  188   12  45.3  36.3 1015.6 31.6  1.026 -99.9 -99.99 -9.99
2020/02/24 16:24 EST    0.66   1.38    9  190   11  45.1  36.3 1015.7 31.6  1.026 -99.9 -99.99 -9.99
2020/02/24 16:30 EST    0.72   1.47   10  188   11  45.0  36.3 1015.7 31.6  1.026 -99.9 -99.99 -9.99
2020/02/24 16:36 EST    0.79   1.53   10  186   12  44.8  36.3 1015.6 31.6  1.026 -99.9 -99.99 -9.99
2020/02/24 16:42 EST    0.86   1.59    9  193   11  44.6  36.3 1015.6 31.6  1.026 -99.9 -99.99 -9.99
2020/02/24 16:48 EST    0.93   1.67   10  195   11  44.4  36.3 1015.7 31.6  1.026 -99.9 -99.99 -9.99
2020/02/24 16:54 EST    1.00   1.73    9  193   12  44.2  36.3 1015.7 31.6  1.026 -99.9 -99.99 -9.99
2020/02/24 17:00 EST    1.08   1.81    9  195   11  44.1  36.3 1015.7 31.7  1.026 -99.9 -99.99 -9.99
2020/02/24 17:06 EST    1.15   1.88   10  198   11  44.2  36.3 1015.7 31.7  1.026 -99.9 -99.99 -9.99
2020/02/24 17:12 EST    1.23   1.98    9  196   11  44.2  36.3 1015.8 31.7  1.026 -99.9 -99.99 -9.99
2020/02/24 17:18 EST    1.31   2.09    9  195   11  44.1  36.3 1015.8 31.7  1.026 -99.9 -99.99 -9.99
2020/02/24 17:24 EST    1.39   2.15    9  197   11  44.2  36.3 1015.8 31.8  1.026 -99.9 -99.99 -9.99
2020/02/24 17:30 EST    1.48   2.20    8  194   10  43.9  36.3 1015.8 31.8  1.026 -99.9 -99.99 -9.99
2020/02/24 17:36 EST    1.56   2.27    8  194   10  43.7  36.3 1015.8 31.8  1.026 -99.9 -99.99 -9.99
2020/02/24 17:42 EST    1.65   2.34    8  190   10  43.5  36.3 1015.9 31.8  1.026 -99.9 -99.99 -9.99
2020/02/24 17:48 EST    1.73   2.45    8  189    9  43.3  36.3 1015.9 31.8  1.026 -99.9 -99.99 -9.99
2020/02/24 17:54 EST    1.82   2.55    8  189    9  43.3  36.1 1015.9 31.9  1.026 -99.9 -99.99 -9.99
2020/02/24 18:00 EST    1.91   2.63    8  191   10  43.3  36.1 1015.9 31.9  1.026 -99.9 -99.99 -9.99
2020/02/24 18:06 EST    1.99   2.73    8  195   10  43.5  36.3 1015.9 31.8  1.026 -99.9 -99.99 -9.99
2020/02/24 18:12 EST    2.08   2.80    8  192   10  43.7  36.3 1015.9 31.8  1.026 -99.9 -99.99 -9.99
2020/02/24 18:18 EST    2.17   2.89    8  195   10  43.7  36.3 1015.9 31.9  1.026 -99.9 -99.99 -9.99
2020/02/24 18:24 EST    2.26   2.97    8  190   10  43.7  36.3 1015.9 31.9  1.026 -99.9 -99.99 -9.99
2020/02/24 18:30 EST    2.34   3.05    9  190   10  43.5  36.5 1015.9 31.8  1.026 -99.9 -99.99 -9.99
2020/02/24 18:36 EST    2.43   3.13    8  191   11  43.5  36.5 1015.9 31.9  1.026 -99.9 -99.99 -9.99
2020/02/24 18:42 EST    2.51   3.19    9  190   10  43.5  36.5 1015.8 31.8  1.026 -99.9 -99.99 -9.99
2020/02/24 18:48 EST    2.59   3.28    8  189    9  43.5  36.5 1015.8 31.8  1.026 -99.9 -99.99 -9.99
2020/02/24 18:54 EST    2.67   3.34    8  185   10  43.5  36.5 1015.8 31.8  1.026 -99.9 -99.99 -9.99
2020/02/24 19:00 EST    2.75   3.39    8  183    9  43.7  36.5 1015.7 31.8  1.026 -99.9 -99.99 -9.99
2020/02/24 19:06 EST    2.82   3.45    9  184   10  43.7  36.5 1015.8 31.9  1.026 -99.9 -99.99 -9.99
2020/02/24 19:12 EST    2.89   3.52    8  184   10  43.7  36.7 1015.8 31.8  1.026 -99.9 -99.99 -9.99
2020/02/24 19:18 EST    2.96   3.60    9  182   10  43.9  36.7 1015.8 31.8  1.026 -99.9 -99.99 -9.99
2020/02/24 19:24 EST    3.03   3.68    9  187   10  43.9  36.7 1015.8 31.8  1.026 -99.9 -99.99 -9.99
2020/02/24 19:30 EST    3.09   3.75    8  189    9  43.7  36.7 1015.9 31.8  1.026 -99.9 -99.99 -9.99
2020/02/24 19:36 EST    3.14   3.81    8  189    9  43.7  36.5 1015.9 31.8  1.026 -99.9 -99.99 -9.99
2020/02/24 19:42 EST    3.20   3.82    8  188    9  43.5  36.7 1016.0 31.8  1.026 -99.9 -99.99 -9.99
2020/02/24 19:48 EST    3.24   3.86    7  191    9  43.5  36.7 1016.0 31.8  1.026 -99.9 -99.99 -9.99
2020/02/24 19:54 EST    3.29   3.88    7  194    8  43.5  36.7 1015.9 31.8  1.026 -99.9 -99.99 -9.99
2020/02/24 20:00 EST    3.32   3.90    6  199    8  43.3  36.7 1015.9 31.8  1.026 -99.9 -99.99 -9.99
2020/02/24 20:06 EST    3.35   3.91    8  202    9  43.5  36.7 1016.1 31.8  1.026 -99.9 -99.99 -9.99
2020/02/24 20:12 EST    3.38   3.90    8  203    9  43.5  36.5 1016.2 31.8  1.026 -99.9 -99.99 -9.99
2020/02/24 20:18 EST    3.40   3.93    7  204    9  43.5  36.7 1016.3 31.7  1.026 -99.9 -99.99 -9.99
2020/02/24 20:24 EST    3.42   3.99    7  199    8  43.3  36.5 1016.3 31.8  1.026 -99.9 -99.99 -9.99
2020/02/24 20:30 EST    3.43   3.97    5  194    7  43.0  36.7 1016.2 31.7  1.026 -99.9 -99.99 -9.99
2020/02/24 20:36 EST    3.43   3.96    5  190    6  42.8  36.7 1016.1 31.7  1.026 -99.9 -99.99 -9.99
2020/02/24 20:42 EST    3.43   3.95    5  185    6  43.0  36.5 1016.1 31.8  1.026 -99.9 -99.99 -9.99
2020/02/24 20:48 EST    3.42   3.95    5  183    7  43.0  36.7 1015.9 31.7  1.026 -99.9 -99.99 -9.99
2020/02/24 20:54 EST    3.40   3.95    4  183    6  43.0  36.7 1015.8 31.7  1.026 -99.9 -99.99 -9.99
2020/02/24 21:00 EST    3.38   3.94    3  186    6  42.8  36.7 1015.7 31.7  1.026 -99.9 -99.99 -9.99
2020/02/24 21:06 EST    3.35   3.92    3  191    5  42.8  36.7 1015.6 31.7  1.026 -99.9 -99.99 -9.99
2020/02/24 21:12 EST    3.32   3.91    4  186    4  42.6  36.5 1015.6 31.8  1.026 -99.9 -99.99 -9.99
2020/02/24 21:18 EST    3.28   3.86    3  182    4  42.6  36.5 1015.6 31.8  1.026 -99.9 -99.99 -9.99
2020/02/24 21:24 EST    3.23   3.84    3  182    4  42.6  36.5 1015.5 31.8  1.026 -99.9 -99.99 -9.99
2020/02/24 21:30 EST    3.18   3.79    2  161    4  42.6  36.5 1015.4 31.8  1.026 -99.9 -99.99 -9.99
2020/02/24 21:36 EST    3.13   3.70    2  149    3  42.6  36.5 1015.4 31.8  1.026 -99.9 -99.99 -9.99
2020/02/24 21:42 EST    3.06   3.64    1  139    2  42.6  36.7 1015.4 31.7  1.026 -99.9 -99.99 -9.99
2020/02/24 21:48 EST    2.99   3.57    2  156    3  42.8  36.7 1015.4 31.8  1.026 -99.9 -99.99 -9.99
2020/02/24 21:54 EST    2.92   3.52    2  164    3  42.8  36.9 1015.5 31.7  1.026 -99.9 -99.99 -9.99
2020/02/24 22:00 EST    2.84   3.45    3  159    3  43.0  36.9 1015.5 31.7  1.026 -99.9 -99.99 -9.99
2020/02/24 22:06 EST    2.76   3.35    3  154    4  43.0  36.9 1015.5 31.7  1.026 -99.9 -99.99 -9.99
2020/02/24 22:12 EST    2.67   3.24    2  154    4  43.0  36.7 1015.4 31.7  1.026 -99.9 -99.99 -9.99
2020/02/24 22:18 EST    2.58   3.18    2  154    3  43.0  36.7 1015.4 31.7  1.026 -99.9 -99.99 -9.99
2020/02/24 22:24 EST    2.48   3.14    3  148    4  43.2  36.9 1015.2 31.7  1.026 -99.9 -99.99 -9.99
2020/02/24 22:30 EST    2.38   3.10    3  153    4  43.5  36.9 1015.2 31.7  1.026 -99.9 -99.99 -9.99
2020/02/24 22:36 EST    2.28   3.01    3  157    4  43.5  36.9 1015.2 31.7  1.026 -99.9 -99.99 -9.99
2020/02/24 22:42 EST    2.18   2.85    3  156    5  43.5  36.9 1015.1 31.7  1.026 -99.9 -99.99 -9.99
2020/02/24 22:48 EST    2.07   2.74    4  157    5  43.7  37.0 1015.0 31.6  1.026 -99.9 -99.99 -9.99
2020/02/24 22:54 EST    1.96   2.66    4  167    5  43.5  36.9 1015.0 31.7  1.026 -99.9 -99.99 -9.99
2020/02/24 23:00 EST    1.85   2.56    4  172    5  43.7  37.0 1015.0 31.6  1.026 -99.9 -99.99 -9.99
2020/02/24 23:06 EST    1.74   2.39    5  166    6  43.5  37.0 1015.0 31.6  1.026 -99.9 -99.99 -9.99
2020/02/24 23:12 EST    1.63   2.30    4  168    6  43.7  36.9 1015.1 31.7  1.026 -99.9 -99.99 -9.99
2020/02/24 23:18 EST    1.52   2.23    4  166    5  43.7  36.7 1015.2 31.7  1.026 -99.9 -99.99 -9.99
2020/02/24 23:24 EST    1.41   2.16    5  163    5  43.7  36.9 1015.2 31.6  1.026 -99.9 -99.99 -9.99
2020/02/24 23:30 EST    1.30   2.07    5  163    6  43.7  36.9 1015.3 31.6  1.026 -99.9 -99.99 -9.99
2020/02/24 23:36 EST    1.19   1.93    5  167    6  43.7  36.9 1015.3 31.7  1.026 -99.9 -99.99 -9.99
2020/02/24 23:42 EST    1.08   1.81    5  164    6  43.5  36.9 1015.1 31.6  1.026 -99.9 -99.99 -9.99
2020/02/24 23:48 EST    0.98   1.73    5  175    6  43.5  36.9 1015.2 31.6  1.026 -99.9 -99.99 -9.99
2020/02/24 23:54 EST    0.87   1.64    5  170    6  43.5  36.7 1015.1 31.7  1.026 -99.9 -99.99 -9.99
2020/02/25 00:00 EST    0.78   1.57    4  176    6  43.3  36.7 1015.1 31.6  1.026 -99.9 -99.99 -9.99
2020/02/25 00:06 EST    0.68   1.45    5  176    7  43.5  36.9 1014.9 31.6  1.026 -99.9 -99.99 -9.99
2020/02/25 00:12 EST    0.59   1.37    6  172    8  43.5  36.9 1014.9 31.7  1.026 -99.9 -99.99 -9.99
2020/02/25 00:18 EST    0.50   1.28    6  184    8  43.7  36.9 1014.9 31.7  1.026 -99.9 -99.99 -9.99
2020/02/25 00:24 EST    0.42   1.20    6  188    8  43.9  36.9 1014.8 31.7  1.026 -99.9 -99.99 -9.99
2020/02/25 00:30 EST    0.34   1.15    7  190   10  44.2  36.9 1014.7 31.7  1.026 -99.9 -99.99 -9.99
2020/02/25 00:36 EST    0.27   1.03    7  196    9  44.4  36.9 1014.6 31.7  1.026 -99.9 -99.99 -9.99
2020/02/25 00:42 EST    0.20   0.97    6  191    8  44.2  37.0 1014.6 31.6  1.026 -99.9 -99.99 -9.99
2020/02/25 00:48 EST    0.14   0.84    5  185    8  44.2  36.9 1014.4 31.7  1.026 -99.9 -99.99 -9.99
2020/02/25 00:54 EST    0.08   0.81    5  188    6  44.1  36.9 1014.5 31.7  1.026 -99.9 -99.99 -9.99
2020/02/25 01:00 EST    0.03   0.76    6  194    6  44.1  36.9 1014.5 31.7  1.026 -99.9 -99.99 -9.99
2020/02/25 01:06 EST   -0.02   0.71    6  193    9  44.1  36.9 1014.4 31.7  1.026 -99.9 -99.99 -9.99
2020/02/25 01:12 EST   -0.06   0.63    7  192    9  44.2  36.9 1014.4 31.7  1.026 -99.9 -99.99 -9.99
2020/02/25 01:18 EST   -0.10   0.58    9  190   11  44.4  36.9 1014.4 31.7  1.026 -99.9 -99.99 -9.99
2020/02/25 01:24 EST   -0.13   0.57    9  193   11  44.4  36.9 1014.2 31.7  1.026 -99.9 -99.99 -9.99
2020/02/25 01:30 EST   -0.16   0.53    8  191   11  44.2  36.9 1014.1 31.7  1.026 -99.9 -99.99 -9.99
2020/02/25 01:36 EST   -0.18   0.50    9  192   11  44.4  36.9 1014.0 31.7  1.026 -99.9 -99.99 -9.99
2020/02/25 01:42 EST   -0.20   0.46    9  196   11  44.4  36.9 1013.9 31.7  1.026 -99.9 -99.99 -9.99
2020/02/25 01:48 EST   -0.21   0.45   12  194   15  44.6  36.9 1014.0 31.7  1.026 -99.9 -99.99 -9.99
2020/02/25 01:54 EST   -0.22   0.46   11  197   14  44.6  36.9 1014.0 31.7  1.026 -99.9 -99.99 -9.99
2020/02/25 02:00 EST   -0.23   0.42   11  195   14  44.6  36.9 1014.0 31.7  1.026 -99.9 -99.99 -9.99
2020/02/25 02:06 EST   -0.23   0.44   10  193   14  44.4  36.9 1013.9 31.7  1.026 -99.9 -99.99 -9.99
2020/02/25 02:12 EST   -0.23   0.44    8  189   12  44.2  36.9 1013.9 31.7  1.026 -99.9 -99.99 -9.99
2020/02/25 02:18 EST   -0.22   0.46    7  190    9  43.9  36.9 1013.7 31.7  1.026 -99.9 -99.99 -9.99
2020/02/25 02:24 EST   -0.21   0.45    9  189   10  44.1  36.9 1013.6 31.7  1.026 -99.9 -99.99 -9.99
2020/02/25 02:30 EST   -0.20   0.47    9  191   12  44.1  36.9 1013.6 31.7  1.026 -99.9 -99.99 -9.99
2020/02/25 02:36 EST   -0.18   0.46   10  193   11  43.9  36.9 1013.5 31.7  1.026 -99.9 -99.99 -9.99
2020/02/25 02:42 EST   -0.16   0.49    9  190   12  44.1  36.9 1013.4 31.7  1.026 -99.9 -99.99 -9.99
2020/02/25 02:48 EST   -0.14   0.49   10  193   11  44.1  36.9 1013.5 31.7  1.026 -99.9 -99.99 -9.99
2020/02/25 02:54 EST   -0.12   0.53   10  201   12  44.2  36.9 1013.6 31.7  1.026 -99.9 -99.99 -9.99
2020/02/25 03:00 EST   -0.09   0.55    9  207   11  44.1  36.9 1013.6 31.7  1.026 -99.9 -99.99 -9.99
2020/02/25 03:06 EST   -0.06   0.61    8  213   11  44.1  36.9 1013.6 31.7  1.026 -99.9 -99.99 -9.99
2020/02/25 03:12 EST   -0.03   0.70    7  214    9  43.9  36.9 1013.4 31.7  1.026 -99.9 -99.99 -9.99
2020/02/25 03:18 EST    0.01   0.72    9  210    9  43.9  36.9 1013.5 31.7  1.026 -99.9 -99.99 -9.99
2020/02/25 03:24 EST    0.04 -99.99 -999 -999 -999 -99.9 -99.9 -999.9 -9.9 -9.999 -99.9 -99.99 -9.99
2020/02/25 03:30 EST    0.08 -99.99 -999 -999 -999 -99.9 -99.9 -999.9 -9.9 -9.999 -99.9 -99.99 -9.99
2020/02/25 03:36 EST    0.13 -99.99 -999 -999 -999 -99.9 -99.9 -999.9 -9.9 -9.999 -99.9 -99.99 -9.99
2020/02/25 03:42 EST    0.17 -99.99 -999 -999 -999 -99.9 -99.9 -999.9 -9.9 -9.999 -99.9 -99.99 -9.99
2020/02/25 03:48 EST    0.21 -99.99 -999 -999 -999 -99.9 -99.9 -999.9 -9.9 -9.999 -99.9 -99.99 -9.99
2020/02/25 03:54 EST    0.26 -99.99 -999 -999 -999 -99.9 -99.9 -999.9 -9.9 -9.999 -99.9 -99.99 -9.99
2020/02/25 04:00 EST    0.31 -99.99 -999 -999 -999 -99.9 -99.9 -999.9 -9.9 -9.999 -99.9 -99.99 -9.99
2020/02/25 04:06 EST    0.36 -99.99 -999 -999 -999 -99.9 -99.9 -999.9 -9.9 -9.999 -99.9 -99.99 -9.99
2020/02/25 04:12 EST    0.42 -99.99 -999 -999 -999 -99.9 -99.9 -999.9 -9.9 -9.999 -99.9 -99.99 -9.99
2020/02/25 04:18 EST    0.48 -99.99 -999 -999 -999 -99.9 -99.9 -999.9 -9.9 -9.999 -99.9 -99.99 -9.99
2020/02/25 04:24 EST    0.53 -99.99 -999 -999 -999 -99.9 -99.9 -999.9 -9.9 -9.999 -99.9 -99.99 -9.99
2020/02/25 04:30 EST    0.59 -99.99 -999 -999 -999 -99.9 -99.9 -999.9 -9.9 -9.999 -99.9 -99.99 -9.99
2020/02/25 04:36 EST    0.66 -99.99 -999 -999 -999 -99.9 -99.9 -999.9 -9.9 -9.999 -99.9 -99.99 -9.99
2020/02/25 04:42 EST    0.72 -99.99 -999 -999 -999 -99.9 -99.9 -999.9 -9.9 -9.999 -99.9 -99.99 -9.99
2020/02/25 04:48 EST    0.79 -99.99 -999 -999 -999 -99.9 -99.9 -999.9 -9.9 -9.999 -99.9 -99.99 -9.99
2020/02/25 04:54 EST    0.86 -99.99 -999 -999 -999 -99.9 -99.9 -999.9 -9.9 -9.999 -99.9 -99.99 -9.99
2020/02/25 05:00 EST    0.93 -99.99 -999 -999 -999 -99.9 -99.9 -999.9 -9.9 -9.999 -99.9 -99.99 -9.99
2020/02/25 05:06 EST    1.00 -99.99 -999 -999 -999 -99.9 -99.9 -999.9 -9.9 -9.999 -99.9 -99.99 -9.99
2020/02/25 05:12 EST    1.07 -99.99 -999 -999 -999 -99.9 -99.9 -999.9 -9.9 -9.999 -99.9 -99.99 -9.99
2020/02/25 05:18 EST    1.15 -99.99 -999 -999 -999 -99.9 -99.9 -999.9 -9.9 -9.999 -99.9 -99.99 -9.99
2020/02/25 05:24 EST    1.22 -99.99 -999 -999 -999 -99.9 -99.9 -999.9 -9.9 -9.999 -99.9 -99.99 -9.99
2020/02/25 05:30 EST    1.30 -99.99 -999 -999 -999 -99.9 -99.9 -999.9 -9.9 -9.999 -99.9 -99.99 -9.99
2020/02/25 05:36 EST    1.38 -99.99 -999 -999 -999 -99.9 -99.9 -999.9 -9.9 -9.999 -99.9 -99.99 -9.99
2020/02/25 05:42 EST    1.46 -99.99 -999 -999 -999 -99.9 -99.9 -999.9 -9.9 -9.999 -99.9 -99.99 -9.99
2020/02/25 05:48 EST    1.54 -99.99 -999 -999 -999 -99.9 -99.9 -999.9 -9.9 -9.999 -99.9 -99.99 -9.99
2020/02/25 05:54 EST    1.63 -99.99 -999 -999 -999 -99.9 -99.9 -999.9 -9.9 -9.999 -99.9 -99.99 -9.99
2020/02/25 06:00 EST    1.71 -99.99 -999 -999 -999 -99.9 -99.9 -999.9 -9.9 -9.999 -99.9 -99.99 -9.99
2020/02/25 06:06 EST    1.79 -99.99 -999 -999 -999 -99.9 -99.9 -999.9 -9.9 -9.999 -99.9 -99.99 -9.99
2020/02/25 06:12 EST    1.88 -99.99 -999 -999 -999 -99.9 -99.9 -999.9 -9.9 -9.999 -99.9 -99.99 -9.99
2020/02/25 06:18 EST    1.96 -99.99 -999 -999 -999 -99.9 -99.9 -999.9 -9.9 -9.999 -99.9 -99.99 -9.99
2020/02/25 06:24 EST    2.05 -99.99 -999 -999 -999 -99.9 -99.9 -999.9 -9.9 -9.999 -99.9 -99.99 -9.99
2020/02/25 06:30 EST    2.13 -99.99 -999 -999 -999 -99.9 -99.9 -999.9 -9.9 -9.999 -99.9 -99.99 -9.99
2020/02/25 06:36 EST    2.22 -99.99 -999 -999 -999 -99.9 -99.9 -999.9 -9.9 -9.999 -99.9 -99.99 -9.99
2020/02/25 06:42 EST    2.30 -99.99 -999 -999 -999 -99.9 -99.9 -999.9 -9.9 -9.999 -99.9 -99.99 -9.99
2020/02/25 06:48 EST    2.38 -99.99 -999 -999 -999 -99.9 -99.9 -999.9 -9.9 -9.999 -99.9 -99.99 -9.99
2020/02/25 06:54 EST    2.46 -99.99 -999 -999 -999 -99.9 -99.9 -999.9 -9.9 -9.999 -99.9 -99.99 -9.99
2020/02/25 07:00 EST    2.54 -99.99 -999 -999 -999 -99.9 -99.9 -999.9 -9.9 -9.999 -99.9 -99.99 -9.99
2020/02/25 07:06 EST    2.62 -99.99 -999 -999 -999 -99.9 -99.9 -999.9 -9.9 -9.999 -99.9 -99.99 -9.99
2020/02/25 07:12 EST    2.70 -99.99 -999 -999 -999 -99.9 -99.9 -999.9 -9.9 -9.999 -99.9 -99.99 -9.99
2020/02/25 07:18 EST    2.77 -99.99 -999 -999 -999 -99.9 -99.9 -999.9 -9.9 -9.999 -99.9 -99.99 -9.99
2020/02/25 07:24 EST    2.84 -99.99 -999 -999 -999 -99.9 -99.9 -999.9 -9.9 -9.999 -99.9 -99.99 -9.99
2020/02/25 07:30 EST    2.91 -99.99 -999 -999 -999 -99.9 -99.9 -999.9 -9.9 -9.999 -99.9 -99.99 -9.99
2020/02/25 07:36 EST    2.98 -99.99 -999 -999 -999 -99.9 -99.9 -999.9 -9.9 -9.999 -99.9 -99.99 -9.99
2020/02/25 07:42 EST    3.04 -99.99 -999 -999 -999 -99.9 -99.9 -999.9 -9.9 -9.999 -99.9 -99.99 -9.99
2020/02/25 07:48 EST    3.10 -99.99 -999 -999 -999 -99.9 -99.9 -999.9 -9.9 -9.999 -99.9 -99.99 -9.99
2020/02/25 07:54 EST    3.15 -99.99 -999 -999 -999 -99.9 -99.9 -999.9 -9.9 -9.999 -99.9 -99.99 -9.99
2020/02/25 08:00 EST    3.20 -99.99 -999 -999 -999 -99.9 -99.9 -999.9 -9.9 -9.999 -99.9 -99.99 -9.99
2020/02/25 08:06 EST    3.25 -99.99 -999 -999 -999 -99.9 -99.9 -999.9 -9.9 -9.999 -99.9 -99.99 -9.99
2020/02/25 08:12 EST    3.29 -99.99 -999 -999 -999 -99.9 -99.9 -999.9 -9.9 -9.999 -99.9 -99.99 -9.99
2020/02/25 08:18 EST    3.33 -99.99 -999 -999 -999 -99.9 -99.9 -999.9 -9.9 -9.999 -99.9 -99.99 -9.99
2020/02/25 08:24 EST    3.36 -99.99 -999 -999 -999 -99.9 -99.9 -999.9 -9.9 -9.999 -99.9 -99.99 -9.99
2020/02/25 08:30 EST    3.38 -99.99 -999 -999 -999 -99.9 -99.9 -999.9 -9.9 -9.999 -99.9 -99.99 -9.99
2020/02/25 08:36 EST    3.40 -99.99 -999 -999 -999 -99.9 -99.9 -999.9 -9.9 -9.999 -99.9 -99.99 -9.99
2020/02/25 08:42 EST    3.42 -99.99 -999 -999 -999 -99.9 -99.9 -999.9 -9.9 -9.999 -99.9 -99.99 -9.99
2020/02/25 08:48 EST    3.43 -99.99 -999 -999 -999 -99.9 -99.9 -999.9 -9.9 -9.999 -99.9 -99.99 -9.99
2020/02/25 08:54 EST    3.43 -99.99 -999 -999 -999 -99.9 -99.9 -999.9 -9.9 -9.999 -99.9 -99.99 -9.99
2020/02/25 09:00 EST    3.43 -99.99 -999 -999 -999 -99.9 -99.9 -999.9 -9.9 -9.999 -99.9 -99.99 -9.99
2020/02/25 09:06 EST    3.42 -99.99 -999 -999 -999 -99.9 -99.9 -999.9 -9.9 -9.999 -99.9 -99.99 -9.99
2020/02/25 09:12 EST    3.41 -99.99 -999 -999 -999 -99.9 -99.9 -999.9 -9.9 -9.999 -99.9 -99.99 -9.99
2020/02/25 09:18 EST    3.39 -99.99 -999 -999 -999 -99.9 -99.9 -999.9 -9.9 -9.999 -99.9 -99.99 -9.99
2020/02/25 09:24 EST    3.36 -99.99 -999 -999 -999 -99.9 -99.9 -999.9 -9.9 -9.999 -99.9 -99.99 -9.99